Time;durP1;ratioP1;P1;durP2;ratioP2;P2;SDS_P1;SDS_P2;PMS_P1;PMS_P2;Temp;Humidity;BMP_temperature;BMP_pressure;BME280_temperature;BME280_humidity;BME280_pressure;Samples;Min_cycle;Max_cycle;Signal;HPM_P1;HPM_P2
2021/03/31 00:02:15;;;;;;;1.77;1.67;;;19.70;64.80;;;;;;5131414;27;20054;-38
2021/03/31 00:04:41;;;;;;;1.60;1.35;;;19.70;64.70;;;;;;5123424;28;20031;-38
2021/03/31 00:07:08;;;;;;;2.60;1.80;;;19.70;64.60;;;;;;5123341;28;20023;-38
2021/03/31 00:09:34;;;;;;;2.25;1.60;;;19.70;64.60;;;;;;5122536;28;20058;-38
2021/03/31 00:12:00;;;;;;;1.63;1.50;;;19.70;64.70;;;;;;5123060;28;20047;-38
2021/03/31 00:14:27;;;;;;;1.50;1.40;;;19.70;65.40;;;;;;5123087;28;20042;-38
2021/03/31 00:16:53;;;;;;;1.70;1.60;;;19.70;64.60;;;;;;5123141;28;20020;-38
2021/03/31 00:19:19;;;;;;;1.90;1.60;;;19.70;64.60;;;;;;5122927;28;20488;-38
2021/03/31 00:21:45;;;;;;;2.10;1.90;;;19.70;64.60;;;;;;5104610;28;20031;-38
2021/03/31 00:24:11;;;;;;;1.90;1.70;;;19.70;64.40;;;;;;5126538;27;20027;-38
2021/03/31 00:26:37;;;;;;;1.58;1.45;;;19.70;64.40;;;;;;5123191;28;20031;-38
2021/03/31 00:29:04;;;;;;;1.63;1.52;;;19.70;64.40;;;;;;5122715;28;20061;-38
2021/03/31 00:31:30;;;;;;;1.73;1.52;;;19.70;64.30;;;;;;5128541;28;20379;-38
2021/03/31 00:33:56;;;;;;;1.75;1.60;;;19.70;64.30;;;;;;5143498;28;20051;-37
2021/03/31 00:36:22;;;;;;;2.20;1.80;;;19.70;64.20;;;;;;5143496;28;20019;-37
2021/03/31 00:38:48;;;;;;;2.70;1.80;;;19.70;64.20;;;;;;5143033;28;20777;-36
2021/03/31 00:41:14;;;;;;;1.80;1.60;;;19.70;64.20;;;;;;5125072;28;20087;-37
2021/03/31 00:43:41;;;;;;;1.80;1.52;;;19.70;64.20;;;;;;5143595;28;20027;-38
2021/03/31 00:46:07;;;;;;;2.10;1.52;;;19.70;64.20;;;;;;5143571;28;20023;-41
2021/03/31 00:48:33;;;;;;;2.05;1.80;;;19.70;64.10;;;;;;5143283;28;20023;-37
2021/03/31 00:51:00;;;;;;;2.30;1.92;;;19.70;64.10;;;;;;5143380;28;20447;-37
2021/03/31 00:53:42;;;;;;;1.65;1.33;;;19.70;64.10;;;;;;5116881;28;20039;-37
2021/03/31 00:56:09;;;;;;;1.77;1.67;;;19.70;64.10;;;;;;5124999;28;20023;-38
2021/03/31 00:58:35;;;;;;;2.25;1.88;;;19.70;64.10;;;;;;5124673;28;20060;-37
2021/03/31 01:01:02;;;;;;;1.77;1.40;;;19.70;64.10;;;;;;5123332;28;20430;-37
2021/03/31 01:03:28;;;;;;;1.63;1.52;;;19.70;64.00;;;;;;5087874;28;20032;-38
2021/03/31 01:05:54;;;;;;;1.95;1.75;;;19.70;64.10;;;;;;5122598;28;20027;-37
2021/03/31 01:08:20;;;;;;;1.85;1.58;;;19.70;64.10;;;;;;5122556;28;20066;-38
2021/03/31 01:10:48;;;;;;;2.30;1.55;;;19.70;64.20;;;;;;5122378;28;20632;-37
2021/03/31 01:13:50;;;;;;;2.05;1.70;;;19.70;64.10;;;;;;5091279;27;20044;-38
2021/03/31 01:16:33;;;;;;;2.10;1.80;;;19.60;64.20;;;;;;5100794;28;20044;-37
2021/03/31 01:19:08;;;;;;;1.52;1.30;;;19.70;64.20;;;;;;5108049;28;20727;-38
2021/03/31 01:21:45;;;;;;;1.88;1.50;;;19.70;64.30;;;;;;5126120;28;20043;-37
2021/03/31 01:24:23;;;;;;;2.00;1.80;;;19.60;64.20;;;;;;5088010;28;20111;-38
2021/03/31 01:27:19;;;;;;;2.10;1.60;;;19.60;64.30;;;;;;5106061;28;20067;-37
2021/03/31 01:29:52;;;;;;;1.70;1.50;;;19.60;64.10;;;;;;5111438;27;20028;-38
2021/03/31 01:32:36;;;;;;;1.90;1.52;;;19.60;64.10;;;;;;5115825;28;20077;-37
2021/03/31 01:35:07;;;;;;;1.58;1.45;;;19.60;64.20;;;;;;5108121;28;20027;-38
2021/03/31 01:37:49;;;;;;;2.15;1.67;;;19.60;64.20;;;;;;5126036;28;20030;-38
2021/03/31 01:40:16;;;;;;;1.90;1.70;;;19.60;64.10;;;;;;5107684;28;20024;-37
2021/03/31 01:42:46;;;;;;;1.70;1.55;;;19.60;64.10;;;;;;5107451;28;20051;-37
2021/03/31 01:45:13;;;;;;;2.75;1.80;;;19.60;64.00;;;;;;5108004;28;20035;-38
2021/03/31 01:47:40;;;;;;;2.70;1.60;;;19.60;64.00;;;;;;5107722;28;20114;-38
2021/03/31 01:50:07;;;;;;;3.55;1.48;;;19.60;63.90;;;;;;5107762;28;20023;-37
2021/03/31 01:52:33;;;;;;;2.17;1.63;;;19.60;63.80;;;;;;5125475;28;20039;-38
2021/03/31 01:54:59;;;;;;;1.73;1.53;;;19.60;63.60;;;;;;5126564;27;20096;-38
2021/03/31 01:57:26;;;;;;;1.80;1.50;;;19.60;63.60;;;;;;5146564;27;20031;-38
2021/03/31 01:59:52;;;;;;;2.17;1.70;;;19.60;63.60;;;;;;5128227;27;20049;-38
2021/03/31 02:02:19;;;;;;;2.08;1.65;;;19.60;63.60;;;;;;5133884;27;20050;-38
2021/03/31 02:04:45;;;;;;;2.28;1.75;;;19.60;63.60;;;;;;5125560;28;20032;-38
2021/03/31 02:07:11;;;;;;;1.50;1.40;;;19.60;63.60;;;;;;5106996;28;20020;-38
2021/03/31 02:09:41;;;;;;;1.60;1.50;;;19.60;63.70;;;;;;5086763;28;20078;-38
2021/03/31 02:12:08;;;;;;;1.65;1.55;;;19.60;63.70;;;;;;5104859;28;20341;-46
2021/03/31 02:14:37;;;;;;;1.98;1.80;;;19.60;63.60;;;;;;5105217;28;20046;-38
2021/03/31 02:17:03;;;;;;;1.95;1.55;;;19.60;63.60;;;;;;5087289;28;20564;-38
2021/03/31 02:19:29;;;;;;;2.00;1.75;;;19.60;63.60;;;;;;5118826;28;20039;-38
2021/03/31 02:21:55;;;;;;;2.67;1.70;;;19.60;63.60;;;;;;5122889;28;20028;-39
2021/03/31 02:24:21;;;;;;;1.92;1.80;;;19.60;63.70;;;;;;5099213;28;20092;-38
2021/03/31 02:26:48;;;;;;;1.83;1.58;;;19.60;63.70;;;;;;5103670;28;20032;-38
2021/03/31 02:29:14;;;;;;;1.80;1.60;;;19.50;63.60;;;;;;5104845;28;20050;-38
2021/03/31 02:31:41;;;;;;;1.10;1.00;;;19.50;63.60;;;;;;5109947;28;20057;-38
2021/03/31 02:34:08;;;;;;;1.98;1.77;;;19.60;63.50;;;;;;5106977;28;20031;-38
2021/03/31 02:36:34;;;;;;;1.73;1.63;;;19.60;63.50;;;;;;5125254;28;20031;-38
2021/03/31 02:39:01;;;;;;;1.92;1.70;;;19.60;63.40;;;;;;5106897;28;20028;-38
2021/03/31 02:41:28;;;;;;;2.42;1.73;;;19.60;63.40;;;;;;5124872;28;20024;-38
2021/03/31 02:43:54;;;;;;;1.58;1.30;;;19.50;63.20;;;;;;5124729;28;20036;-38
2021/03/31 02:46:20;;;;;;;2.67;1.70;;;19.50;63.20;;;;;;5123743;28;20031;-38
2021/03/31 02:48:50;;;;;;;2.40;1.47;;;19.50;63.10;;;;;;5106589;28;20020;-38
2021/03/31 02:51:20;;;;;;;3.30;2.00;;;19.60;63.20;;;;;;5106704;28;20118;-38
2021/03/31 02:53:46;;;;;;;1.92;1.70;;;19.50;63.40;;;;;;5115364;28;20032;-38
2021/03/31 02:56:12;;;;;;;1.85;1.45;;;19.50;63.30;;;;;;5124657;28;20020;-38
2021/03/31 02:58:39;;;;;;;2.03;1.58;;;19.50;63.40;;;;;;5106512;28;20030;-38
2021/03/31 03:01:07;;;;;;;3.25;1.73;;;19.50;63.40;;;;;;5121400;28;20036;-38
2021/03/31 03:03:36;;;;;;;2.55;1.67;;;19.50;63.50;;;;;;5102574;28;20034;-38
2021/03/31 03:06:03;;;;;;;1.80;1.70;;;19.50;63.50;;;;;;5085874;28;20043;-38
2021/03/31 03:08:29;;;;;;;2.03;1.83;;;19.50;63.60;;;;;;5125683;27;20053;-38
2021/03/31 03:11:01;;;;;;;1.80;1.63;;;19.50;63.50;;;;;;5145017;27;20035;-38
2021/03/31 03:13:30;;;;;;;2.10;1.67;;;19.50;63.60;;;;;;5144783;27;20558;-41
2021/03/31 03:15:56;;;;;;;1.95;1.60;;;19.50;63.60;;;;;;5126526;27;20033;-38
2021/03/31 03:18:22;;;;;;;2.03;1.83;;;19.50;63.60;;;;;;5109667;27;20023;-38
2021/03/31 03:20:49;;;;;;;1.90;1.70;;;19.50;63.60;;;;;;5144749;27;20037;-38
2021/03/31 03:23:16;;;;;;;1.80;1.60;;;19.50;63.60;;;;;;5118687;27;20038;-38
2021/03/31 03:25:42;;;;;;;2.03;1.60;;;19.50;63.60;;;;;;5109399;27;20035;-38
2021/03/31 03:28:09;;;;;;;2.15;1.83;;;19.50;63.60;;;;;;5120090;28;20053;-38
2021/03/31 03:30:35;;;;;;;2.47;1.70;;;19.50;63.50;;;;;;5091505;28;20073;-38
2021/03/31 03:33:01;;;;;;;2.33;2.00;;;19.50;63.40;;;;;;5123775;27;20054;-38
2021/03/31 03:35:27;;;;;;;1.90;1.70;;;19.50;63.40;;;;;;5108947;28;20023;-38
2021/03/31 03:37:54;;;;;;;3.73;2.23;;;19.50;63.40;;;;;;5125592;27;20027;-38
2021/03/31 03:40:24;;;;;;;1.85;1.50;;;19.50;63.30;;;;;;5125899;27;20259;-38
2021/03/31 03:42:50;;;;;;;1.88;1.75;;;19.50;63.30;;;;;;5160287;27;20038;-38
2021/03/31 03:45:17;;;;;;;1.95;1.67;;;19.50;63.30;;;;;;5144474;27;20745;-38
2021/03/31 03:47:43;;;;;;;2.60;1.85;;;19.50;63.40;;;;;;5144480;27;20061;-38
2021/03/31 03:50:10;;;;;;;1.70;1.50;;;19.50;63.50;;;;;;5125833;27;20512;-38
2021/03/31 03:52:38;;;;;;;2.20;2.00;;;19.40;63.40;;;;;;5137514;27;20063;-38
2021/03/31 03:55:04;;;;;;;1.80;1.42;;;19.40;63.40;;;;;;5143295;27;20023;-38
2021/03/31 03:57:31;;;;;;;2.05;1.70;;;19.40;63.50;;;;;;5144335;27;20097;-38
2021/03/31 03:59:57;;;;;;;1.87;1.63;;;19.40;63.50;;;;;;5144293;27;20027;-38
2021/03/31 04:02:23;;;;;;;2.00;1.77;;;19.40;63.60;;;;;;5113099;28;20034;-38
2021/03/31 04:04:50;;;;;;;1.77;1.52;;;19.40;63.50;;;;;;5105348;28;20031;-38
2021/03/31 04:07:16;;;;;;;1.88;1.70;;;19.40;63.50;;;;;;5123482;28;20032;-38
2021/03/31 04:09:48;;;;;;;1.83;1.70;;;19.40;63.60;;;;;;5128556;27;20051;-38
2021/03/31 04:12:15;;;;;;;1.70;1.60;;;19.40;63.50;;;;;;5108446;27;20023;-38
2021/03/31 04:14:41;;;;;;;;;;;19.40;63.50;;;;;;5096986;28;20035;-38
2021/03/31 04:17:08;;;;;;;2.92;1.70;;;19.40;63.70;;;;;;5123541;28;19907;-38
2021/03/31 04:19:35;;;;;;;1.73;1.42;;;19.40;63.70;;;;;;5105272;28;20103;-38
2021/03/31 04:22:01;;;;;;;2.92;1.67;;;19.40;63.80;;;;;;5088147;28;20087;-38
2021/03/31 04:24:27;;;;;;;1.92;1.60;;;19.40;63.70;;;;;;5119392;28;20645;-38
2021/03/31 04:26:53;;;;;;;1.70;1.60;;;19.40;63.60;;;;;;5108321;28;20046;-38
2021/03/31 04:29:19;;;;;;;1.80;1.70;;;19.40;63.60;;;;;;5108453;28;20023;-38
2021/03/31 04:31:46;;;;;;;2.45;1.85;;;19.40;63.50;;;;;;5117901;28;20020;-38
2021/03/31 04:34:12;;;;;;;2.13;1.80;;;19.40;63.50;;;;;;5104786;28;20570;-39
2021/03/31 04:36:39;;;;;;;2.30;1.80;;;19.40;63.50;;;;;;5088284;28;20342;-38
2021/03/31 04:39:06;;;;;;;1.80;1.60;;;19.40;63.50;;;;;;5105132;28;20038;-38
2021/03/31 04:41:35;;;;;;;1.90;1.70;;;19.40;63.60;;;;;;5104842;28;20032;-38
2021/03/31 04:44:03;;;;;;;1.98;1.67;;;19.40;63.60;;;;;;5122897;28;20024;-38
2021/03/31 04:46:30;;;;;;;2.38;1.80;;;19.30;63.60;;;;;;5123253;28;20027;-38
2021/03/31 04:48:56;;;;;;;2.10;1.70;;;19.40;63.60;;;;;;5126625;28;20024;-38
2021/03/31 04:51:22;;;;;;;2.25;1.90;;;19.40;63.80;;;;;;5126635;28;20020;-38
2021/03/31 04:53:48;;;;;;;2.25;1.60;;;19.40;63.70;;;;;;5099358;28;20040;-38
2021/03/31 04:56:15;;;;;;;1.77;1.67;;;19.40;63.70;;;;;;5088482;28;20048;-38
2021/03/31 04:58:41;;;;;;;2.03;1.70;;;19.40;63.80;;;;;;5106740;28;20028;-38
2021/03/31 05:01:07;;;;;;;1.52;1.42;;;19.40;63.80;;;;;;5110765;27;20030;-38
2021/03/31 05:03:33;;;;;;;1.90;1.75;;;19.30;63.80;;;;;;5147579;27;20035;-38
2021/03/31 05:05:59;;;;;;;2.40;1.80;;;19.30;63.80;;;;;;5147401;27;20027;-38
2021/03/31 05:08:25;;;;;;;1.77;1.65;;;19.30;63.80;;;;;;5147631;27;20047;-38
2021/03/31 05:10:52;;;;;;;2.00;1.80;;;19.30;63.80;;;;;;5152938;27;20027;-38
2021/03/31 05:13:18;;;;;;;2.47;1.80;;;19.30;63.80;;;;;;5126803;28;20441;-38
2021/03/31 05:15:44;;;;;;;2.15;1.67;;;19.30;63.80;;;;;;5126739;28;20493;-38
2021/03/31 05:18:10;;;;;;;2.25;2.03;;;19.30;63.80;;;;;;5126817;28;20031;-38
2021/03/31 05:20:37;;;;;;;2.10;1.63;;;19.30;63.80;;;;;;5126892;28;20020;-38
2021/03/31 05:23:03;;;;;;;1.98;1.63;;;19.30;63.80;;;;;;5129281;27;20035;-38
2021/03/31 05:25:29;;;;;;;1.77;1.63;;;19.30;63.80;;;;;;5146776;27;20032;-38
2021/03/31 05:27:55;;;;;;;1.45;1.35;;;19.30;63.80;;;;;;5147096;27;20027;-37
2021/03/31 05:30:22;;;;;;;2.30;1.63;;;19.30;63.80;;;;;;5147230;27;20030;-38
2021/03/31 05:32:48;;;;;;;1.30;1.17;;;19.30;63.80;;;;;;5145132;27;20030;-38
2021/03/31 05:35:14;;;;;;;2.75;2.15;;;19.30;63.80;;;;;;5146744;27;20513;-38
2021/03/31 05:37:41;;;;;;;2.60;1.90;;;19.30;63.80;;;;;;5143023;27;20547;-38
2021/03/31 05:40:07;;;;;;;2.03;1.83;;;19.30;63.90;;;;;;5125911;28;20047;-38
2021/03/31 05:42:34;;;;;;;2.03;1.83;;;19.30;63.90;;;;;;5108116;28;20035;-38
2021/03/31 05:45:08;;;;;;;2.40;1.70;;;19.30;63.90;;;;;;5125924;28;20032;-38
2021/03/31 05:47:36;;;;;;;2.65;2.42;;;19.20;63.90;;;;;;5126386;28;20046;-38
2021/03/31 05:50:04;;;;;;;2.33;2.00;;;19.30;64.00;;;;;;5126269;28;20479;-38
2021/03/31 05:52:30;;;;;;;1.75;1.63;;;19.30;64.00;;;;;;5125903;28;20647;-38
2021/03/31 05:54:56;;;;;;;2.33;1.88;;;19.20;63.90;;;;;;5106952;28;20032;-38
2021/03/31 05:57:22;;;;;;;1.92;1.73;;;19.30;64.00;;;;;;5087241;28;20017;-38
2021/03/31 05:59:50;;;;;;;2.10;1.88;;;19.20;63.90;;;;;;5086133;28;20032;-38
2021/03/31 06:02:16;;;;;;;2.17;1.90;;;19.20;64.00;;;;;;5110981;27;20023;-38
2021/03/31 06:04:44;;;;;;;2.08;1.90;;;19.20;64.00;;;;;;5127697;27;20027;-38
2021/03/31 06:07:10;;;;;;;;;;;19.20;63.90;;;;;;5146863;27;20032;-38
2021/03/31 06:10:05;;;;;;;1.75;1.60;;;19.20;64.00;;;;;;5125444;27;19979;-38
2021/03/31 06:12:32;;;;;;;1.52;1.42;;;19.20;64.10;;;;;;5125514;28;20110;-39
2021/03/31 06:15:20;;;;;;;1.95;1.80;;;19.20;64.10;;;;;;5125244;28;20042;-38
2021/03/31 06:17:49;;;;;;;2.60;2.03;;;19.20;64.10;;;;;;5125612;28;20020;-38
2021/03/31 06:20:42;;;;;;;2.17;1.98;;;19.20;64.10;;;;;;5125632;28;20658;-38
2021/03/31 06:23:17;;;;;;;2.20;1.60;;;19.20;64.10;;;;;;5133165;27;20028;-38
2021/03/31 06:26:03;;;;;;;2.05;1.75;;;19.20;64.90;;;;;;5125046;28;20031;-37
2021/03/31 06:28:37;;;;;;;2.03;1.83;;;19.20;64.10;;;;;;5125374;28;20031;-38
2021/03/31 06:31:16;;;;;;;2.53;1.83;;;19.20;64.20;;;;;;5106958;28;20797;-38
2021/03/31 06:33:43;;;;;;;1.95;1.73;;;19.20;64.20;;;;;;5125140;28;20036;-38
2021/03/31 06:36:11;;;;;;;2.25;1.60;;;19.20;64.20;;;;;;5106782;28;20043;-38
2021/03/31 06:38:45;;;;;;;2.20;1.90;;;19.20;64.20;;;;;;5125154;28;20110;-37
2021/03/31 06:41:21;;;;;;;2.60;2.05;;;19.20;64.20;;;;;;5124907;28;20030;-38
2021/03/31 06:44:21;;;;;;;2.10;1.90;;;19.20;64.20;;;;;;5125109;28;20023;-37
2021/03/31 06:47:10;;;;;;;2.17;1.90;;;19.20;64.30;;;;;;5093298;28;20032;-38
2021/03/31 06:49:37;;;;;;;1.83;1.70;;;19.20;64.20;;;;;;5124962;28;20027;-38
2021/03/31 06:52:07;;;;;;;1.90;1.67;;;19.20;64.20;;;;;;5122741;28;20028;-38
2021/03/31 06:55:00;;;;;;;2.00;1.80;;;19.20;64.30;;;;;;5119858;28;20128;-38
2021/03/31 06:57:31;;;;;;;2.40;1.90;;;19.20;64.30;;;;;;5124699;28;20066;-37
2021/03/31 07:00:10;;;;;;;2.05;1.85;;;19.20;64.30;;;;;;5124896;28;20031;-38
2021/03/31 07:02:38;;;;;;;2.10;1.90;;;19.10;64.20;;;;;;5139479;27;20023;-38
2021/03/31 07:05:05;;;;;;;1.95;1.80;;;19.10;64.20;;;;;;5145186;27;20027;-38
2021/03/31 07:07:31;;;;;;;;;;;19.10;64.20;;;;;;5145387;27;20038;-38
2021/03/31 07:10:07;;;;;;;2.00;1.83;;;19.10;64.30;;;;;;5144702;27;19915;-38
2021/03/31 07:12:55;;;;;;;2.08;1.88;;;19.10;64.30;;;;;;5145162;27;20072;-38
2021/03/31 07:15:24;;;;;;;2.45;1.90;;;19.10;64.30;;;;;;5141800;27;20027;-38
2021/03/31 07:17:56;;;;;;;2.42;2.00;;;19.10;64.40;;;;;;5145027;27;20126;-38
2021/03/31 07:20:24;;;;;;;2.50;1.83;;;19.10;64.40;;;;;;5144959;27;20035;-38
2021/03/31 07:22:50;;;;;;;1.90;1.80;;;19.10;64.40;;;;;;5136971;27;20032;-38
2021/03/31 07:25:16;;;;;;;2.00;1.80;;;19.10;64.40;;;;;;5144734;27;20023;-38
2021/03/31 07:27:46;;;;;;;2.37;1.77;;;19.10;64.30;;;;;;5144424;27;20571;-38
2021/03/31 07:30:15;;;;;;;2.03;1.83;;;19.10;64.30;;;;;;5125311;27;20260;-38
2021/03/31 07:32:58;;;;;;;2.03;1.77;;;19.10;64.40;;;;;;5123889;28;20035;-38
2021/03/31 07:35:26;;;;;;;1.67;1.55;;;19.10;64.30;;;;;;5118216;28;20118;-38
2021/03/31 07:37:53;;;;;;;2.35;2.05;;;19.10;64.40;;;;;;5123667;28;20031;-38
2021/03/31 07:40:19;;;;;;;2.13;1.93;;;19.10;64.40;;;;;;5105482;28;20862;-38
2021/03/31 07:43:03;;;;;;;1.95;1.77;;;19.10;64.40;;;;;;5124010;28;20396;-38
2021/03/31 07:45:35;;;;;;;1.77;1.63;;;19.10;64.40;;;;;;5106671;28;20043;-38
2021/03/31 07:48:01;;;;;;;1.77;1.67;;;19.10;64.50;;;;;;5123576;28;20031;-38
2021/03/31 07:50:28;;;;;;;2.13;1.90;;;19.10;64.40;;;;;;5105479;28;20024;-38
2021/03/31 07:53:01;;;;;;;1.67;1.58;;;19.10;64.50;;;;;;5114327;27;20043;-38
2021/03/31 07:55:34;;;;;;;2.03;1.75;;;19.10;64.50;;;;;;5144013;27;20030;-38
2021/03/31 07:58:14;;;;;;;2.00;1.70;;;19.10;64.50;;;;;;5108213;27;20027;-38
2021/03/31 08:01:04;;;;;;;1.88;1.77;;;19.10;64.50;;;;;;5144182;27;20027;-38
2021/03/31 08:03:32;;;;;;;2.20;2.00;;;19.10;64.50;;;;;;5103344;28;20032;-38
2021/03/31 08:06:07;;;;;;;2.40;1.80;;;19.10;64.50;;;;;;5102935;28;20024;-38
2021/03/31 08:08:38;;;;;;;2.20;2.00;;;19.10;64.50;;;;;;5102567;28;20075;-38
2021/03/31 08:11:05;;;;;;;2.10;1.90;;;19.10;64.50;;;;;;5103018;28;20180;-38
2021/03/31 08:13:33;;;;;;;1.77;1.67;;;19.10;64.50;;;;;;5139730;27;20035;-38
2021/03/31 08:16:01;;;;;;;1.98;1.77;;;19.10;64.50;;;;;;5144006;27;20031;-38
2021/03/31 08:18:28;;;;;;;3.35;2.05;;;19.10;64.50;;;;;;5143660;27;20025;-38
2021/03/31 08:20:54;;;;;;;2.30;2.00;;;19.10;64.60;;;;;;5143842;27;20062;-38
2021/03/31 08:24:01;;;;;;;2.67;1.70;;;19.10;64.60;;;;;;5130532;27;20023;-38
2021/03/31 08:26:29;;;;;;;1.75;1.63;;;19.10;64.70;;;;;;5034436;28;20445;-38
2021/03/31 08:28:55;;;;;;;1.73;1.40;;;19.00;64.60;;;;;;5039544;28;20061;-38
2021/03/31 08:31:25;;;;;;;2.08;1.80;;;19.00;64.60;;;;;;5043653;28;20033;-38
2021/03/31 08:33:51;;;;;;;1.88;1.70;;;19.00;64.60;;;;;;5059906;28;20040;-38
2021/03/31 08:36:18;;;;;;;2.55;1.90;;;19.00;64.60;;;;;;5059853;28;20029;-38
2021/03/31 08:38:51;;;;;;;2.10;1.90;;;19.00;64.60;;;;;;5059256;28;20119;-38
2021/03/31 08:41:22;;;;;;;1.80;1.63;;;19.00;64.60;;;;;;5059448;28;20029;-38
2021/03/31 08:43:49;;;;;;;1.95;1.75;;;19.00;64.60;;;;;;5059593;28;20037;-37
2021/03/31 08:46:31;;;;;;;2.15;1.58;;;19.00;64.60;;;;;;5043121;28;20025;-38
2021/03/31 08:48:57;;;;;;;2.00;1.70;;;19.00;65.30;;;;;;5059406;28;20028;-38
2021/03/31 08:51:23;;;;;;;2.38;1.70;;;19.00;64.60;;;;;;5059647;28;20135;-38
2021/03/31 08:53:50;;;;;;;1.87;1.77;;;19.00;64.60;;;;;;5042792;28;20957;-38
2021/03/31 08:56:25;;;;;;;2.40;1.90;;;19.00;64.60;;;;;;5047312;28;20270;-38
2021/03/31 08:58:52;;;;;;;2.03;1.83;;;19.00;64.60;;;;;;5102313;28;20034;-38
2021/03/31 09:01:28;;;;;;;;;;;19.00;64.60;;;;;;5110354;28;20024;-38
2021/03/31 09:04:33;;;;;;;2.63;1.98;;;19.00;64.70;;;;;;5143422;28;20336;-38
2021/03/31 09:07:00;;;;;;;2.00;1.80;;;19.00;64.80;;;;;;5059245;28;20036;-38
2021/03/31 09:09:36;;;;;;;2.75;1.80;;;19.00;64.80;;;;;;5026864;28;20076;-38
2021/03/31 09:12:03;;;;;;;2.50;1.70;;;19.00;64.80;;;;;;5006267;28;20043;-38
2021/03/31 09:14:29;;;;;;;2.13;1.90;;;19.00;64.80;;;;;;5039641;28;20060;-38
2021/03/31 09:16:57;;;;;;;3.53;1.98;;;19.00;64.80;;;;;;5039436;28;20089;-38
2021/03/31 09:19:24;;;;;;;2.08;1.75;;;19.00;64.80;;;;;;5039138;28;20044;-38
2021/03/31 09:21:50;;;;;;;2.67;2.08;;;19.00;64.80;;;;;;5024981;28;20025;-38
2021/03/31 09:24:17;;;;;;;2.08;1.88;;;19.00;64.80;;;;;;5046924;28;20025;-37
2021/03/31 09:26:56;;;;;;;2.13;1.77;;;19.00;64.80;;;;;;5039294;28;20852;-38
2021/03/31 09:29:22;;;;;;;1.75;1.65;;;19.00;64.70;;;;;;5007165;28;20030;-37
2021/03/31 09:31:50;;;;;;;2.20;2.00;;;19.00;64.80;;;;;;5047145;28;20128;-38
2021/03/31 09:34:17;;;;;;;2.10;1.67;;;19.00;64.80;;;;;;5061006;28;20037;-38
2021/03/31 09:36:55;;;;;;;1.42;1.33;;;19.00;64.80;;;;;;5069648;27;20052;-38
2021/03/31 09:39:22;;;;;;;1.75;1.65;;;19.00;64.80;;;;;;5146487;27;20049;-38
2021/03/31 09:41:48;;;;;;;2.05;1.85;;;19.00;64.80;;;;;;5146758;27;20065;-38
2021/03/31 09:44:14;;;;;;;2.20;1.98;;;19.00;64.80;;;;;;5146902;27;20472;-38
2021/03/31 09:46:40;;;;;;;1.95;1.75;;;19.00;64.90;;;;;;5146733;27;20034;-37
2021/03/31 09:49:06;;;;;;;4.30;2.00;;;19.00;64.90;;;;;;5146338;27;20495;-38
2021/03/31 09:51:32;;;;;;;2.15;2.00;;;19.00;64.90;;;;;;5128185;27;20042;-38
2021/03/31 09:53:59;;;;;;;1.95;1.70;;;19.00;64.90;;;;;;5138594;27;20043;-38
2021/03/31 09:56:25;;;;;;;2.03;1.80;;;19.00;64.80;;;;;;5128070;27;20024;-38
2021/03/31 09:58:51;;;;;;;2.38;2.17;;;19.00;64.90;;;;;;5127803;27;20029;-38
2021/03/31 10:01:17;;;;;;;2.30;2.05;;;19.00;64.90;;;;;;5142846;27;20028;-38
2021/03/31 10:03:44;;;;;;;2.07;1.87;;;19.00;64.90;;;;;;5138939;27;20023;-38
2021/03/31 10:06:15;;;;;;;2.10;1.73;;;19.00;64.90;;;;;;5146383;27;20069;-38
2021/03/31 10:08:41;;;;;;;2.13;1.80;;;19.00;65.00;;;;;;5145680;27;20054;-38
2021/03/31 10:11:09;;;;;;;1.93;1.57;;;19.00;65.00;;;;;;5127822;27;20020;-38
2021/03/31 10:13:36;;;;;;;2.03;1.83;;;19.00;65.10;;;;;;5126287;27;20035;-38
2021/03/31 10:16:04;;;;;;;2.28;2.08;;;19.00;65.00;;;;;;5107005;28;20049;-37
2021/03/31 10:18:33;;;;;;;2.10;1.90;;;19.00;65.00;;;;;;5125249;28;20031;-37
2021/03/31 10:21:00;;;;;;;2.22;1.77;;;19.00;65.10;;;;;;5090701;28;20062;-37
2021/03/31 10:23:30;;;;;;;1.95;1.77;;;19.00;65.10;;;;;;5131407;27;20102;-37
2021/03/31 10:26:22;;;;;;;2.22;1.88;;;19.00;65.10;;;;;;5145652;27;20026;-37
2021/03/31 10:28:48;;;;;;;3.13;1.98;;;18.90;65.00;;;;;;5145563;27;20126;-37
2021/03/31 10:31:39;;;;;;;2.47;2.22;;;19.00;65.10;;;;;;5142758;27;20119;-37
2021/03/31 10:34:05;;;;;;;2.10;1.90;;;18.90;65.10;;;;;;5115409;28;20046;-37
2021/03/31 10:50:40;;;;;;;2.10;1.90;;;18.90;65.20;;;;;;5109165;28;20475;-37
2021/03/31 10:53:08;;;;;;;2.03;1.83;;;18.90;65.20;;;;;;5120097;27;20045;-37
2021/03/31 10:55:33;;;;;;;;;;;18.90;65.10;;;;;;5145861;27;20384;-37
2021/03/31 10:58:00;;;;;;;1.83;1.73;;;18.90;65.30;;;;;;5145176;27;19915;-37
2021/03/31 11:00:26;;;;;;;1.77;1.63;;;18.90;65.30;;;;;;5126379;27;20083;-38
2021/03/31 11:02:53;;;;;;;2.22;2.03;;;18.90;65.30;;;;;;5128272;27;20034;-37
2021/03/31 11:05:20;;;;;;;2.38;1.90;;;18.90;65.30;;;;;;5106371;28;20016;-38
2021/03/31 11:07:46;;;;;;;2.08;1.88;;;18.90;65.40;;;;;;5119436;27;20027;-37
2021/03/31 11:10:12;;;;;;;2.13;1.88;;;18.90;65.30;;;;;;5144438;27;20035;-38
2021/03/31 11:12:39;;;;;;;2.10;1.90;;;18.90;65.30;;;;;;5127268;27;20027;-37
2021/03/31 11:15:08;;;;;;;2.17;1.98;;;18.90;65.30;;;;;;5124672;28;20027;-37
2021/03/31 11:17:42;;;;;;;2.10;1.90;;;18.90;65.30;;;;;;5124401;28;20016;-37
2021/03/31 11:28:07;;;;;;;2.10;2.00;;;18.90;65.30;;;;;;5103675;28;20024;-37
2021/03/31 11:30:34;;;;;;;2.10;1.90;;;18.90;65.30;;;;;;5103568;28;20039;-37
2021/03/31 11:33:00;;;;;;;1.35;1.25;;;18.90;65.30;;;;;;5121732;28;20096;-37
2021/03/31 11:35:26;;;;;;;2.80;1.90;;;18.90;65.20;;;;;;5123769;28;20020;-37
2021/03/31 11:37:52;;;;;;;2.10;1.90;;;18.90;65.30;;;;;;5124044;27;20024;-37
2021/03/31 11:40:18;;;;;;;2.25;2.03;;;18.90;65.30;;;;;;5123669;28;20023;-37
2021/03/31 11:42:45;;;;;;;2.25;2.03;;;18.90;65.30;;;;;;5124005;28;20036;-37
2021/03/31 11:45:12;;;;;;;2.10;1.90;;;18.90;65.30;;;;;;5124037;28;20027;-37
2021/03/31 11:47:38;;;;;;;2.10;1.90;;;18.90;65.20;;;;;;5123802;28;20298;-37
2021/03/31 11:50:04;;;;;;;2.30;1.90;;;18.90;65.20;;;;;;5123448;28;20028;-37
2021/03/31 11:52:30;;;;;;;2.37;1.80;;;18.90;65.20;;;;;;5117985;28;20086;-37
2021/03/31 11:54:57;;;;;;;2.05;1.80;;;18.90;66.00;;;;;;5138465;27;20352;-37
2021/03/31 11:57:23;;;;;;;2.15;1.92;;;18.90;65.20;;;;;;5122795;28;20031;-37
2021/03/31 11:59:49;;;;;;;2.27;1.97;;;18.90;65.30;;;;;;5123490;28;20114;-37
2021/03/31 12:02:15;;;;;;;2.30;2.10;;;18.90;65.30;;;;;;5135536;27;20254;-37
2021/03/31 12:04:42;;;;;;;2.25;1.98;;;18.80;65.30;;;;;;5144264;27;20027;-37
2021/03/31 12:07:09;;;;;;;2.38;2.17;;;18.90;65.40;;;;;;5144240;27;20047;-37
2021/03/31 12:09:42;;;;;;;2.80;2.10;;;18.90;65.40;;;;;;5143562;27;20419;-37
2021/03/31 12:12:09;;;;;;;2.15;1.90;;;18.90;65.30;;;;;;5125928;28;20032;-37
2021/03/31 12:14:35;;;;;;;1.70;1.60;;;18.90;65.30;;;;;;5123647;28;20114;-37
2021/03/31 12:17:03;;;;;;;2.05;1.88;;;18.90;65.30;;;;;;5123661;28;20024;-37
2021/03/31 12:19:29;;;;;;;2.10;1.90;;;18.90;65.30;;;;;;5123262;28;20027;-37
2021/03/31 12:21:55;;;;;;;2.25;2.05;;;18.90;65.30;;;;;;5123247;28;20036;-37
2021/03/31 12:24:22;;;;;;;2.10;1.90;;;18.80;65.20;;;;;;5136844;27;20026;-37
2021/03/31 12:26:49;;;;;;;2.10;1.90;;;18.90;65.30;;;;;;5144014;27;20034;-37
2021/03/31 12:29:16;;;;;;;2.42;1.98;;;18.90;65.30;;;;;;5143805;27;20038;-37
2021/03/31 12:31:42;;;;;;;1.77;1.67;;;18.80;65.20;;;;;;5136460;28;20028;-37
2021/03/31 12:34:09;;;;;;;2.58;2.35;;;18.80;65.20;;;;;;5123144;28;20043;-37
2021/03/31 12:36:35;;;;;;;2.00;1.80;;;18.80;65.20;;;;;;5123409;28;20030;-37
2021/03/31 12:39:02;;;;;;;2.45;1.88;;;18.80;65.20;;;;;;5123233;28;20024;-37
2021/03/31 12:41:31;;;;;;;2.15;1.95;;;18.80;65.20;;;;;;5104816;28;20693;-37
2021/03/31 12:43:57;;;;;;;1.77;1.65;;;18.80;65.20;;;;;;5123223;28;20056;-37
2021/03/31 12:46:24;;;;;;;1.93;1.80;;;18.80;65.30;;;;;;5123193;28;20016;-38
2021/03/31 12:48:50;;;;;;;2.00;1.75;;;18.80;65.30;;;;;;5123106;28;20132;-37
2021/03/31 12:51:26;;;;;;;2.38;2.00;;;18.80;65.30;;;;;;5122963;28;20062;-37
2021/03/31 12:54:01;;;;;;;1.80;1.70;;;18.80;65.30;;;;;;5125029;28;20037;-37
2021/03/31 12:56:27;;;;;;;2.10;1.90;;;18.80;65.40;;;;;;5143659;28;20026;-37
2021/03/31 12:58:54;;;;;;;2.37;1.90;;;18.80;65.40;;;;;;5143777;28;20117;-38
2021/03/31 13:01:27;;;;;;;2.10;1.85;;;18.80;65.40;;;;;;5139590;28;20280;-37
2021/03/31 13:03:53;;;;;;;2.42;1.50;;;18.80;65.30;;;;;;5122929;28;20036;-37
2021/03/31 13:06:22;;;;;;;2.20;2.00;;;18.80;65.40;;;;;;5125798;28;20072;-37
2021/03/31 13:08:51;;;;;;;2.35;1.92;;;18.80;65.40;;;;;;5102382;28;20048;-37
2021/03/31 13:11:18;;;;;;;2.08;1.77;;;18.80;65.40;;;;;;5106422;28;20054;-37
2021/03/31 13:14:12;;;;;;;2.00;1.80;;;18.80;65.40;;;;;;5106170;28;20095;-37
2021/03/31 13:26:04;;;;;;;1.90;1.80;;;18.80;65.40;;;;;;5105187;28;20031;-37
2021/03/31 13:31:57;;;;;;;2.28;2.08;;;18.80;65.60;;;;;;5097888;28;20036;-37
2021/03/31 13:34:27;;;;;;;1.70;1.60;;;18.80;65.60;;;;;;5085106;28;20052;-38